Time;durP1;ratioP1;P1;durP2;ratioP2;P2;SDS_P1;SDS_P2;PMS_P1;PMS_P2;Temp;Humidity;BMP_temperature;BMP_pressure;BME280_temperature;BME280_humidity;BME280_pressure;Samples;Min_cycle;Max_cycle;Signal;HPM_P1;HPM_P2
2022/05/12 00:00:35;;;;;;;4.50;4.20;;;20.30;51.70;;;;;;5030386;28;20181;-60
2022/05/12 00:03:00;;;;;;;3.80;3.50;;;20.30;51.80;;;;;;5030093;28;20531;-60
2022/05/12 00:05:26;;;;;;;4.80;4.10;;;20.30;52.00;;;;;;5030543;28;20512;-59
2022/05/12 00:07:52;;;;;;;4.83;4.30;;;20.30;52.20;;;;;;5032324;28;20205;-61
2022/05/12 00:10:21;;;;;;;4.63;4.27;;;20.30;52.10;;;;;;5030300;28;20481;-61
2022/05/12 00:12:48;;;;;;;4.37;3.97;;;20.30;52.30;;;;;;5037413;28;20257;-60
2022/05/12 00:15:19;;;;;;;4.30;3.90;;;20.20;52.60;;;;;;5035190;28;20448;-60
2022/05/12 00:17:44;;;;;;;4.60;4.30;;;20.20;52.90;;;;;;5032123;28;20496;-61
2022/05/12 00:20:16;;;;;;;4.13;3.83;;;20.20;53.00;;;;;;5031960;28;20456;-61
2022/05/12 00:22:42;;;;;;;4.80;4.40;;;20.20;53.20;;;;;;5031962;28;20174;-61
2022/05/12 00:25:15;;;;;;;4.27;3.60;;;20.20;53.20;;;;;;5030608;28;20798;-61
2022/05/12 00:27:41;;;;;;;8.07;4.50;;;20.20;53.40;;;;;;5034096;28;20257;-59
2022/05/12 00:30:11;;;;;;;4.93;4.53;;;20.10;53.60;;;;;;5036923;28;20552;-60
2022/05/12 00:32:38;;;;;;;4.97;4.47;;;20.10;53.90;;;;;;5027023;28;20216;-62
2022/05/12 00:35:05;;;;;;;4.60;4.30;;;20.10;54.10;;;;;;5034382;28;20479;-59
2022/05/12 00:37:31;;;;;;;5.37;4.87;;;20.00;54.40;;;;;;5033106;28;20559;-60
2022/05/12 00:39:56;;;;;;;6.93;6.13;;;20.00;54.60;;;;;;5031765;28;20518;-62
2022/05/12 00:42:22;;;;;;;5.83;5.33;;;20.00;54.70;;;;;;5031367;28;20186;-62
2022/05/12 00:44:47;;;;;;;5.20;4.70;;;20.00;54.80;;;;;;5035692;28;20703;-63
2022/05/12 00:47:13;;;;;;;4.90;4.60;;;19.90;55.20;;;;;;5029622;28;20240;-62
2022/05/12 00:49:41;;;;;;;4.97;4.57;;;19.90;55.20;;;;;;5031141;28;20202;-62
2022/05/12 00:52:11;;;;;;;4.10;3.70;;;19.90;55.50;;;;;;5033288;28;20186;-61
2022/05/12 00:54:44;;;;;;;4.97;4.57;;;19.90;55.30;;;;;;5025949;28;20464;-63
2022/05/12 00:57:16;;;;;;;4.53;4.17;;;19.90;55.50;;;;;;5022620;28;20530;-62
2022/05/12 00:59:42;;;;;;;5.43;4.60;;;19.90;56.30;;;;;;5029165;28;20511;-63
2022/05/12 01:02:14;;;;;;;4.33;3.77;;;19.90;55.70;;;;;;5036730;28;20860;-63
2022/05/12 01:04:41;;;;;;;4.30;4.00;;;19.80;56.30;;;;;;5030529;28;20468;-62
2022/05/12 01:07:07;;;;;;;4.50;4.20;;;19.80;56.10;;;;;;5037080;28;20449;-62
2022/05/12 01:09:32;;;;;;;5.30;4.37;;;19.80;56.10;;;;;;5030078;28;20456;-63
2022/05/12 01:11:58;;;;;;;4.43;4.13;;;19.70;56.30;;;;;;5032580;28;20186;-61
2022/05/12 01:14:24;;;;;;;5.50;4.40;;;19.60;56.80;;;;;;5034630;28;20204;-62
2022/05/12 01:17:02;;;;;;;5.03;4.63;;;19.60;56.90;;;;;;5036926;28;20205;-62
2022/05/12 01:19:36;;;;;;;4.50;4.20;;;19.60;56.80;;;;;;5037139;28;20452;-62
2022/05/12 01:22:03;;;;;;;4.50;4.10;;;19.60;57.00;;;;;;5035382;28;20440;-63
2022/05/12 01:24:38;;;;;;;5.00;4.67;;;19.60;57.20;;;;;;5031348;28;20506;-63
2022/05/12 01:27:19;;;;;;;4.70;4.40;;;19.50;57.40;;;;;;5030532;28;20806;-63
2022/05/12 01:29:51;;;;;;;4.83;4.50;;;19.50;57.80;;;;;;5033876;28;20483;-63
2022/05/12 01:32:19;;;;;;;6.53;5.30;;;19.40;58.00;;;;;;5033696;28;20440;-63
2022/05/12 01:34:45;;;;;;;7.40;5.07;;;19.30;58.50;;;;;;5032262;28;20444;-63
2022/05/12 01:37:11;;;;;;;4.87;4.47;;;19.20;58.70;;;;;;5028682;28;20475;-63
2022/05/12 01:39:36;;;;;;;5.93;5.00;;;19.20;59.10;;;;;;5029182;28;20456;-63
2022/05/12 01:42:07;;;;;;;4.57;4.17;;;19.20;59.20;;;;;;5032112;28;20652;-61
2022/05/12 01:44:34;;;;;;;4.47;4.17;;;19.20;59.30;;;;;;5026183;28;20186;-63
2022/05/12 01:46:59;;;;;;;4.50;4.10;;;19.20;59.70;;;;;;5029439;28;20497;-61
2022/05/12 01:49:25;;;;;;;6.20;5.60;;;19.20;59.80;;;;;;5033884;28;20567;-62
2022/05/12 01:51:56;;;;;;;4.87;4.53;;;19.20;60.50;;;;;;5029103;28;20185;-62
2022/05/12 01:54:23;;;;;;;4.50;4.23;;;19.20;60.90;;;;;;5023338;28;20553;-62
2022/05/12 01:56:48;;;;;;;5.47;5.07;;;19.10;61.20;;;;;;5027137;28;20460;-61
2022/05/12 01:59:14;;;;;;;5.50;5.00;;;19.10;62.00;;;;;;5029854;28;20469;-61
2022/05/12 02:01:40;;;;;;;4.67;4.27;;;19.10;61.70;;;;;;5030659;28;20187;-62
2022/05/12 02:04:05;;;;;;;4.30;4.00;;;19.10;62.20;;;;;;5037792;28;20957;-61
2022/05/12 02:06:33;;;;;;;4.80;4.40;;;19.10;64.50;;;;;;5028105;28;20185;-62
2022/05/12 02:08:59;;;;;;;5.63;5.23;;;19.10;64.10;;;;;;5029868;28;20302;-62
2022/05/12 02:11:25;;;;;;;5.90;5.33;;;19.00;64.40;;;;;;5033952;28;20474;-62
2022/05/12 02:13:50;;;;;;;7.93;4.37;;;19.00;64.20;;;;;;5030418;28;20182;-62
2022/05/12 02:16:16;;;;;;;4.63;4.33;;;18.90;65.30;;;;;;5036028;28;20441;-62
2022/05/12 02:18:43;;;;;;;4.73;4.33;;;18.90;67.60;;;;;;5028152;28;20209;-62
2022/05/12 02:21:08;;;;;;;6.33;4.30;;;18.90;67.90;;;;;;5032079;28;20228;-62
2022/05/12 02:23:34;;;;;;;4.90;4.60;;;18.80;67.50;;;;;;5034013;28;20441;-61
2022/05/12 02:25:59;;;;;;;6.00;4.90;;;18.80;69.60;;;;;;5033648;28;20256;-63
2022/05/12 02:28:25;;;;;;;5.43;4.90;;;18.80;70.20;;;;;;5034374;28;20205;-62
2022/05/12 02:30:51;;;;;;;4.63;4.33;;;18.80;69.40;;;;;;5031937;28;20182;-62
2022/05/12 02:33:16;;;;;;;5.20;4.90;;;18.80;68.90;;;;;;5038279;28;20193;-62
2022/05/12 02:35:42;;;;;;;6.93;5.07;;;18.80;72.30;;;;;;5034751;28;20185;-62
2022/05/12 02:38:09;;;;;;;7.07;5.17;;;18.70;70.60;;;;;;5032130;28;20237;-62
2022/05/12 02:40:34;;;;;;;5.53;4.97;;;18.80;71.40;;;;;;5034459;28;20773;-62
2022/05/12 02:43:00;;;;;;;5.50;5.00;;;18.70;71.80;;;;;;5032036;28;20443;-62
2022/05/12 02:45:29;;;;;;;7.13;4.90;;;18.70;73.70;;;;;;5033311;28;20174;-63
2022/05/12 02:47:55;;;;;;;5.73;5.00;;;18.70;73.70;;;;;;5034197;28;20256;-63
2022/05/12 02:50:22;;;;;;;5.27;4.77;;;18.60;73.90;;;;;;5037939;28;20463;-61
2022/05/12 02:52:47;;;;;;;5.53;4.70;;;18.60;76.00;;;;;;5032721;28;20432;-62
2022/05/12 02:55:13;;;;;;;4.33;4.03;;;18.60;75.80;;;;;;5034072;28;20440;-61
2022/05/12 02:57:39;;;;;;;5.47;5.03;;;18.50;75.80;;;;;;5032952;28;20206;-63
2022/05/12 03:00:08;;;;;;;5.07;4.57;;;18.40;76.70;;;;;;5036141;28;20433;-62
2022/05/12 03:02:34;;;;;;;5.23;4.73;;;18.40;78.40;;;;;;5037471;28;20444;-63
2022/05/12 03:04:59;;;;;;;4.70;4.40;;;18.40;79.90;;;;;;5038162;28;20440;-62
2022/05/12 03:07:25;;;;;;;5.33;4.83;;;18.40;80.40;;;;;;5031486;28;20193;-63
2022/05/12 03:09:50;;;;;;;5.40;4.90;;;18.40;81.50;;;;;;5035123;28;20209;-62
2022/05/12 03:12:16;;;;;;;5.37;4.93;;;18.30;83.70;;;;;;5033637;28;20186;-63
2022/05/12 03:14:41;;;;;;;6.53;4.80;;;18.30;84.30;;;;;;5037404;28;20270;-62
2022/05/12 03:17:07;;;;;;;9.27;5.33;;;18.40;85.10;;;;;;5032026;28;20206;-62
2022/05/12 03:19:33;;;;;;;5.10;4.70;;;18.30;86.80;;;;;;5031741;28;20198;-62
2022/05/12 03:21:59;;;;;;;5.80;5.30;;;18.20;88.60;;;;;;5034420;28;20185;-63
2022/05/12 03:24:25;;;;;;;5.40;5.07;;;18.30;89.80;;;;;;5030865;28;20734;-63
2022/05/12 03:26:50;;;;;;;6.53;4.37;;;18.30;90.70;;;;;;5031641;28;20524;-61
2022/05/12 03:29:16;;;;;;;5.83;5.33;;;18.30;91.30;;;;;;5029402;28;20241;-62
2022/05/12 03:31:42;;;;;;;4.83;4.53;;;18.30;92.30;;;;;;5037709;28;20182;-62
2022/05/12 03:34:08;;;;;;;5.67;4.60;;;18.20;93.00;;;;;;5030055;28;20449;-63
2022/05/12 03:36:35;;;;;;;5.40;4.90;;;18.20;94.00;;;;;;5036656;28;20456;-62
2022/05/12 03:39:05;;;;;;;4.17;3.90;;;18.20;95.00;;;;;;5031402;28;20229;-62
2022/05/12 03:41:31;;;;;;;4.70;4.40;;;18.20;95.80;;;;;;5031528;28;20448;-63
2022/05/12 03:46:41;;;;;;;11.13;4.63;;;18.20;97.30;;;;;;5037018;28;20563;-62
2022/05/12 03:49:07;;;;;;;5.40;4.80;;;18.20;98.30;;;;;;5032358;28;21033;-62
2022/05/12 03:51:33;;;;;;;4.87;4.30;;;18.10;99.30;;;;;;5037568;28;20182;-63
2022/05/12 03:53:58;;;;;;;4.50;3.73;;;18.00;99.90;;;;;;5031572;28;20473;-63
2022/05/12 03:56:24;;;;;;;5.13;4.37;;;18.00;99.90;;;;;;5032470;28;20237;-63
2022/05/12 03:58:49;;;;;;;9.63;7.00;;;18.00;99.90;;;;;;5033791;28;20414;-62
2022/05/12 04:01:15;;;;;;;4.30;4.00;;;18.10;99.90;;;;;;5035988;28;20628;-63
2022/05/12 04:03:41;;;;;;;11.30;4.13;;;18.10;99.90;;;;;;5031381;28;20628;-62
2022/05/12 04:06:07;;;;;;;3.67;3.40;;;18.10;99.90;;;;;;5034153;28;20436;-63
2022/05/12 04:08:33;;;;;;;5.33;4.87;;;18.10;99.90;;;;;;5029018;28;20202;-63
2022/05/12 04:11:00;;;;;;;6.13;4.60;;;18.10;99.90;;;;;;5030119;28;20445;-62
2022/05/12 04:13:26;;;;;;;4.23;3.63;;;18.10;99.90;;;;;;5033893;28;20467;-62
2022/05/12 04:15:52;;;;;;;7.03;4.20;;;18.10;99.90;;;;;;5031977;28;20950;-63
2022/05/12 04:18:18;;;;;;;3.80;3.50;;;18.00;99.90;;;;;;5031744;28;20220;-63
2022/05/12 04:20:43;;;;;;;3.87;3.57;;;18.00;99.90;;;;;;5029844;28;20455;-63
2022/05/12 04:23:09;;;;;;;4.87;4.53;;;17.90;99.90;;;;;;5031495;28;20938;-63
2022/05/12 04:25:35;;;;;;;4.30;4.03;;;17.90;99.90;;;;;;5033783;28;20174;-63
2022/05/12 04:28:02;;;;;;;6.83;4.27;;;17.90;99.90;;;;;;5034035;28;20706;-63
2022/05/12 04:30:27;;;;;;;4.17;3.87;;;18.00;99.90;;;;;;5031330;28;20190;-62
2022/05/12 04:32:54;;;;;;;4.73;4.40;;;18.00;99.90;;;;;;5034014;28;20803;-63
2022/05/12 04:35:20;;;;;;;5.10;4.60;;;18.00;99.90;;;;;;5028552;28;20178;-63
2022/05/12 04:37:50;;;;;;;4.10;3.80;;;18.10;99.90;;;;;;5028069;28;20464;-63
2022/05/12 04:40:30;;;;;;;5.53;5.13;;;18.00;99.90;;;;;;5032459;28;20439;-63
2022/05/12 04:42:58;;;;;;;4.83;4.00;;;18.10;99.90;;;;;;5030731;28;20476;-63
2022/05/12 04:45:26;;;;;;;4.73;4.33;;;18.10;99.90;;;;;;5030896;28;20447;-63
2022/05/12 04:47:52;;;;;;;6.77;6.07;;;18.20;99.90;;;;;;5029166;28;20840;-63
2022/05/12 04:50:21;;;;;;;4.87;4.47;;;18.40;99.90;;;;;;5029128;28;20440;-63
2022/05/12 04:52:47;;;;;;;4.23;3.93;;;18.50;99.90;;;;;;5028038;28;20667;-63
2022/05/12 04:55:13;;;;;;;8.10;5.03;;;18.60;99.90;;;;;;5033674;28;20811;-63
2022/05/12 04:57:41;;;;;;;4.33;3.93;;;18.70;99.90;;;;;;5035987;28;20463;-63
2022/05/12 05:00:13;;;;;;;4.80;4.40;;;18.80;99.90;;;;;;5043162;28;20446;-62
2022/05/12 05:02:39;;;;;;;5.40;4.37;;;19.00;99.90;;;;;;5040896;28;20440;-63
2022/05/12 05:05:05;;;;;;;6.90;5.47;;;19.10;99.90;;;;;;5032510;28;20531;-62
2022/05/12 05:07:30;;;;;;;6.00;5.50;;;19.20;99.90;;;;;;5036868;28;20178;-62
2022/05/12 05:09:56;;;;;;;7.40;5.23;;;19.40;99.90;;;;;;5038844;28;20436;-60
2022/05/12 05:12:21;;;;;;;9.17;5.13;;;19.40;99.90;;;;;;5038383;28;20185;-60
2022/05/12 05:14:47;;;;;;;6.63;5.53;;;19.50;99.90;;;;;;5040024;28;20566;-61
2022/05/12 05:17:12;;;;;;;10.33;5.97;;;19.70;99.90;;;;;;5042034;28;20205;-61
2022/05/12 05:19:38;;;;;;;9.63;6.13;;;19.90;99.90;;;;;;5033019;28;20205;-60
2022/05/12 05:22:04;;;;;;;6.23;5.10;;;20.00;99.90;;;;;;5043090;28;20177;-62
2022/05/12 05:24:30;;;;;;;6.60;4.23;;;20.20;99.90;;;;;;5037474;28;20717;-60
2022/05/12 05:26:55;;;;;;;5.30;4.53;;;20.30;99.90;;;;;;5039049;28;20321;-61
2022/05/12 05:29:21;;;;;;;5.13;4.70;;;20.40;99.90;;;;;;5041263;28;20538;-61
2022/05/12 05:31:46;;;;;;;4.90;4.30;;;20.70;99.90;;;;;;5033613;28;20190;-61
2022/05/12 05:34:12;;;;;;;3.90;3.40;;;20.90;99.90;;;;;;5042236;28;20178;-59
2022/05/12 05:36:42;;;;;;;5.13;2.80;;;21.00;99.90;;;;;;5037405;28;20194;-63
2022/05/12 05:39:08;;;;;;;3.33;3.00;;;20.90;99.90;;;;;;5023198;28;20193;-63
2022/05/12 05:41:35;;;;;;;3.17;2.87;;;21.10;99.90;;;;;;5040560;28;20957;-61
2022/05/12 05:44:01;;;;;;;3.80;3.50;;;21.20;99.90;;;;;;5045917;28;20425;-61
2022/05/12 05:46:27;;;;;;;3.03;2.50;;;21.40;99.90;;;;;;5037597;28;20540;-59
2022/05/12 05:48:53;;;;;;;4.27;3.10;;;21.70;99.90;;;;;;5032039;28;20217;-62
2022/05/12 05:54:03;;;;;;;3.97;3.00;;;21.90;99.90;;;;;;5053572;28;20230;-62
2022/05/12 05:56:28;;;;;;;4.10;2.70;;;21.90;99.90;;;;;;5031817;28;20436;-60
2022/05/12 05:58:54;;;;;;;5.87;5.40;;;22.10;99.90;;;;;;5039578;28;20213;-61
2022/05/12 06:01:20;;;;;;;6.97;2.90;;;22.30;99.90;;;;;;5043070;28;20560;-62
2022/05/12 06:03:46;;;;;;;2.90;2.70;;;22.20;99.30;;;;;;5039456;28;20224;-61
2022/05/12 06:06:12;;;;;;;3.00;2.80;;;22.30;99.20;;;;;;5043282;28;20451;-61
2022/05/12 06:08:37;;;;;;;3.43;2.73;;;22.00;99.20;;;;;;5037757;28;20204;-60
2022/05/12 06:11:04;;;;;;;3.80;3.50;;;22.10;99.30;;;;;;5040211;28;20432;-60
2022/05/12 06:13:34;;;;;;;3.37;3.17;;;22.20;99.70;;;;;;5037631;28;20721;-60
2022/05/12 06:16:00;;;;;;;3.73;3.20;;;22.00;99.10;;;;;;5044901;28;20441;-62
2022/05/12 06:18:26;;;;;;;4.97;2.80;;;22.10;99.40;;;;;;5044626;28;20459;-63
2022/05/12 06:20:52;;;;;;;4.27;3.07;;;22.00;99.10;;;;;;5042928;28;20468;-62
2022/05/12 06:23:18;;;;;;;2.70;2.53;;;22.20;99.40;;;;;;5033914;28;20491;-62
2022/05/12 06:25:44;;;;;;;3.10;2.80;;;22.40;99.10;;;;;;5046174;28;20690;-61
2022/05/12 06:28:10;;;;;;;3.00;2.73;;;22.80;98.40;;;;;;5035361;28;20251;-62
2022/05/12 06:30:35;;;;;;;5.50;2.77;;;22.80;98.20;;;;;;5040334;28;20855;-61
2022/05/12 06:33:01;;;;;;;3.87;3.47;;;22.80;98.20;;;;;;5018144;28;20597;-61
2022/05/12 06:35:27;;;;;;;4.47;2.73;;;22.80;98.20;;;;;;5001105;28;20214;-64
2022/05/12 06:37:53;;;;;;;4.97;3.20;;;22.70;98.30;;;;;;5035482;28;20521;-62
2022/05/12 06:40:19;;;;;;;3.30;3.03;;;23.00;98.40;;;;;;5035393;28;20169;-61
2022/05/12 06:42:45;;;;;;;5.20;3.00;;;23.00;97.60;;;;;;5031335;28;20273;-62
2022/05/12 06:45:14;;;;;;;4.13;3.33;;;23.00;97.40;;;;;;5031719;28;21017;-62
2022/05/12 06:47:48;;;;;;;3.30;3.10;;;23.10;97.70;;;;;;5029048;28;20185;-65
2022/05/12 06:50:15;;;;;;;3.50;3.30;;;22.80;97.60;;;;;;5030971;28;20445;-65
2022/05/12 06:52:42;;;;;;;6.00;3.27;;;22.70;98.00;;;;;;5033358;28;20471;-65
2022/05/12 06:55:08;;;;;;;4.83;3.20;;;22.90;97.80;;;;;;5032348;28;20816;-65
2022/05/12 06:57:33;;;;;;;3.20;2.90;;;23.00;97.60;;;;;;5042592;28;20462;-64
2022/05/12 06:59:59;;;;;;;10.97;4.30;;;22.70;97.60;;;;;;5034361;28;20202;-64
2022/05/12 07:02:25;;;;;;;4.30;3.10;;;22.60;98.30;;;;;;5029118;28;20181;-64
2022/05/12 07:04:53;;;;;;;3.80;3.60;;;22.60;98.40;;;;;;5028526;28;20338;-64
2022/05/12 07:07:20;;;;;;;3.40;3.10;;;22.30;98.90;;;;;;5024960;28;20472;-64
2022/05/12 07:09:46;;;;;;;3.77;3.20;;;22.20;99.00;;;;;;5031896;28;20554;-65
2022/05/12 07:12:13;;;;;;;6.80;2.83;;;22.40;99.30;;;;;;5032891;28;20437;-64
2022/05/12 07:14:38;;;;;;;3.87;3.20;;;22.20;99.10;;;;;;5034597;28;20520;-63
2022/05/12 07:17:04;;;;;;;4.03;2.97;;;22.10;99.10;;;;;;5036219;28;20551;-64
2022/05/12 07:19:32;;;;;;;5.47;3.73;;;22.20;99.40;;;;;;5028503;28;20194;-64
2022/05/12 07:27:25;;;;;;;4.97;3.00;;;22.70;98.20;;;;;;5035363;28;20443;-64
2022/05/12 07:29:51;;;;;;;3.23;3.03;;;23.00;97.80;;;;;;5039535;28;20542;-64
2022/05/12 07:32:17;;;;;;;5.00;2.70;;;23.20;97.60;;;;;;5032634;28;20254;-64
2022/05/12 07:34:43;;;;;;;3.90;3.03;;;23.10;98.00;;;;;;5034985;28;20696;-64
2022/05/12 07:37:08;;;;;;;4.90;2.83;;;23.20;97.20;;;;;;5032590;28;20514;-63
2022/05/12 07:39:35;;;;;;;8.63;2.80;;;23.30;97.20;;;;;;5036885;28;20659;-63
2022/05/12 07:42:03;;;;;;;4.40;3.30;;;23.10;97.40;;;;;;5033336;28;20444;-64
2022/05/12 07:44:34;;;;;;;7.93;3.30;;;23.30;97.40;;;;;;5033951;28;20456;-64
2022/05/12 07:47:06;;;;;;;3.60;3.30;;;23.60;97.20;;;;;;5034268;28;20433;-63
2022/05/12 07:49:35;;;;;;;3.30;2.80;;;23.90;96.60;;;;;;5031227;28;20467;-64
2022/05/12 07:52:02;;;;;;;3.27;2.97;;;24.20;96.10;;;;;;5031582;28;20468;-64
2022/05/12 07:54:27;;;;;;;5.33;2.90;;;24.10;95.90;;;;;;5032987;28;20938;-64
2022/05/12 07:56:53;;;;;;;3.10;2.90;;;23.90;95.80;;;;;;5030871;28;20529;-64
2022/05/12 07:59:19;;;;;;;2.50;2.30;;;23.90;95.80;;;;;;5033646;28;20225;-64
2022/05/12 08:01:45;;;;;;;3.00;2.43;;;23.80;95.90;;;;;;5031279;28;20265;-65
2022/05/12 08:04:12;;;;;;;4.83;2.60;;;23.60;95.80;;;;;;5030725;28;20628;-65
2022/05/12 08:06:39;;;;;;;3.60;2.60;;;24.00;95.80;;;;;;5030001;28;20695;-65
2022/05/12 08:09:05;;;;;;;6.23;2.47;;;24.40;95.30;;;;;;5029831;28;20539;-66
2022/05/12 08:11:31;;;;;;;3.73;3.23;;;24.40;95.60;;;;;;5035634;28;20570;-65
2022/05/12 08:13:57;;;;;;;6.60;3.03;;;24.40;95.20;;;;;;5028913;28;20794;-65
2022/05/12 08:16:23;;;;;;;3.17;2.73;;;24.30;94.80;;;;;;5032957;28;20441;-66
2022/05/12 08:18:49;;;;;;;3.10;2.90;;;24.60;94.40;;;;;;5024849;28;20211;-66
2022/05/12 08:21:17;;;;;;;4.17;3.77;;;24.90;94.00;;;;;;5029034;28;20432;-65
2022/05/12 08:23:43;;;;;;;2.63;2.43;;;25.40;92.80;;;;;;5029958;28;20527;-65
2022/05/12 08:26:09;;;;;;;3.10;2.90;;;26.00;92.20;;;;;;5037949;28;20468;-66
2022/05/12 08:28:35;;;;;;;4.13;3.57;;;26.60;91.30;;;;;;5035441;28;20459;-66
2022/05/12 08:31:01;;;;;;;2.87;2.67;;;27.30;90.00;;;;;;5040340;28;20512;-66
2022/05/12 08:33:26;;;;;;;2.60;2.50;;;27.00;89.30;;;;;;5031669;28;20443;-66
2022/05/12 08:35:52;;;;;;;3.00;2.80;;;26.60;89.60;;;;;;5038783;28;20186;-66
2022/05/12 08:38:19;;;;;;;3.13;2.80;;;27.00;89.60;;;;;;5025616;28;20218;-65
2022/05/12 08:41:03;;;;;;;4.00;2.97;;;26.90;89.30;;;;;;5026374;28;20842;-66
2022/05/12 08:43:39;;;;;;;5.17;2.90;;;26.30;88.70;;;;;;5034020;28;20944;-65
2022/05/12 08:46:10;;;;;;;4.57;2.77;;;25.70;90.20;;;;;;5027969;28;20467;-66
2022/05/12 08:48:42;;;;;;;2.87;2.67;;;25.50;90.90;;;;;;5032413;28;20468;-65
2022/05/12 08:51:11;;;;;;;3.50;3.30;;;25.70;90.90;;;;;;5023958;28;20487;-66
2022/05/12 08:53:47;;;;;;;6.57;4.50;;;25.80;90.90;;;;;;5020905;28;20437;-65
2022/05/12 08:56:14;;;;;;;3.50;3.20;;;25.90;91.40;;;;;;5018458;28;20515;-66
2022/05/12 08:58:41;;;;;;;3.10;2.90;;;26.30;90.50;;;;;;5025161;28;20499;-66
2022/05/12 09:01:17;;;;;;;3.90;3.50;;;26.40;90.10;;;;;;5031553;28;20444;-66
2022/05/12 09:04:23;;;;;;;2.83;2.63;;;26.60;88.90;;;;;;5027637;28;20436;-66
2022/05/12 09:06:54;;;;;;;3.50;3.20;;;26.40;88.60;;;;;;5017436;28;20515;-66
2022/05/12 09:09:46;;;;;;;3.37;3.13;;;27.20;87.70;;;;;;5026867;28;20594;-66
2022/05/12 09:12:37;;;;;;;6.97;4.07;;;27.20;86.40;;;;;;5022666;28;20447;-66
2022/05/12 09:15:09;;;;;;;3.80;3.40;;;27.70;85.50;;;;;;5035209;28;20565;-66
2022/05/12 09:17:38;;;;;;;3.80;3.50;;;28.30;83.50;;;;;;5026030;28;20464;-65
2022/05/12 09:20:05;;;;;;;4.10;3.80;;;28.10;82.30;;;;;;5036824;28;20436;-66
2022/05/12 09:22:31;;;;;;;3.80;3.60;;;27.70;83.30;;;;;;5031783;28;20433;-65
2022/05/12 09:24:57;;;;;;;3.80;3.50;;;27.80;82.20;;;;;;5031113;28;20487;-66
2022/05/12 09:27:38;;;;;;;4.10;3.20;;;27.50;82.40;;;;;;5032618;28;20547;-66
2022/05/12 09:30:09;;;;;;;4.20;3.90;;;27.70;82.30;;;;;;5033344;28;20440;-66
2022/05/12 09:32:38;;;;;;;4.30;4.00;;;27.50;82.20;;;;;;5024745;28;20543;-66
2022/05/12 09:35:19;;;;;;;4.30;3.90;;;27.00;82.60;;;;;;5028969;28;20501;-65
2022/05/12 09:37:45;;;;;;;9.30;5.90;;;26.60;82.70;;;;;;5037626;28;20464;-66
2022/05/12 09:40:32;;;;;;;5.10;4.70;;;25.90;84.80;;;;;;5028712;28;20459;-65
2022/05/12 09:43:00;;;;;;;5.03;4.53;;;25.60;85.50;;;;;;5038302;28;20782;-65
2022/05/12 09:45:36;;;;;;;4.97;4.50;;;25.20;86.50;;;;;;5027742;28;21042;-65
2022/05/12 09:48:23;;;;;;;4.80;4.13;;;25.40;87.00;;;;;;5030640;28;20531;-65
2022/05/12 09:50:50;;;;;;;4.57;4.20;;;25.50;87.20;;;;;;5029462;28;20449;-65
2022/05/12 09:53:25;;;;;;;5.33;4.47;;;25.70;85.90;;;;;;5038442;28;20832;-66
2022/05/12 09:56:05;;;;;;;5.30;4.63;;;25.90;85.30;;;;;;5033719;28;20934;-66
2022/05/12 09:58:57;;;;;;;6.87;5.23;;;26.00;86.00;;;;;;5032588;28;20478;-66
2022/05/12 10:01:24;;;;;;;4.77;4.30;;;26.50;85.50;;;;;;5027303;28;20433;-65
2022/05/12 10:09:31;;;;;;;6.43;4.00;;;27.30;81.10;;;;;;5029490;28;20502;-68
2022/05/12 10:12:06;;;;;;;5.27;4.37;;;26.80;82.50;;;;;;5033123;28;20428;-67
2022/05/12 10:14:44;;;;;;;5.97;5.47;;;27.30;80.60;;;;;;5033412;28;20821;-64
2022/05/12 10:17:35;;;;;;;5.33;4.93;;;26.80;82.10;;;;;;5030428;28;20538;-64
2022/05/12 10:20:08;;;;;;;6.73;4.70;;;26.40;82.70;;;;;;5028143;28;20447;-62
2022/05/12 10:22:44;;;;;;;9.27;4.47;;;26.40;83.10;;;;;;5036243;28;20433;-70
2022/05/12 10:25:21;;;;;;;5.83;4.80;;;27.30;81.90;;;;;;5033898;28;20458;-68
2022/05/12 10:27:58;;;;;;;5.60;5.10;;;28.50;79.20;;;;;;5033532;28;20977;-69
2022/05/12 10:30:29;;;;;;;7.33;6.80;;;28.90;78.20;;;;;;5028563;28;20440;-66
2022/05/12 10:32:54;;;;;;;5.57;5.00;;;28.20;77.90;;;;;;5032228;28;20437;-67
2022/05/12 10:35:28;;;;;;;4.80;4.50;;;27.30;78.40;;;;;;5034260;28;20450;-66
2022/05/12 10:38:09;;;;;;;6.27;5.13;;;27.60;78.00;;;;;;5029543;28;20292;-69
2022/05/12 10:40:59;;;;;;;4.83;4.40;;;29.00;76.80;;;;;;5035668;28;20498;-67
2022/05/12 10:44:06;;;;;;;5.00;4.50;;;31.00;70.80;;;;;;5030520;28;20452;-68
2022/05/12 10:46:34;;;;;;;4.53;4.23;;;32.90;66.30;;;;;;5032662;28;20468;-69
2022/05/12 10:49:18;;;;;;;4.53;4.23;;;32.90;63.20;;;;;;5041840;28;20448;-68
2022/05/12 10:51:46;;;;;;;5.83;5.33;;;31.80;64.70;;;;;;5030358;28;20980;-67
2022/05/12 10:54:32;;;;;;;5.00;4.50;;;32.50;63.40;;;;;;5039357;28;20515;-67
2022/05/12 10:57:04;;;;;;;5.60;4.80;;;30.40;62.90;;;;;;5023916;28;20967;-65
2022/05/12 11:00:03;;;;;;;5.73;5.23;;;30.10;63.80;;;;;;5030291;28;20810;-67
2022/05/12 11:02:43;;;;;;;5.60;4.90;;;29.20;66.90;;;;;;5031484;28;20444;-66
2022/05/12 11:05:21;;;;;;;5.20;4.80;;;29.80;67.10;;;;;;5030890;28;20424;-67
2022/05/12 11:07:54;;;;;;;5.67;5.17;;;31.10;63.60;;;;;;5041068;28;20506;-67
2022/05/12 11:10:44;;;;;;;5.30;4.57;;;30.80;63.80;;;;;;5030588;28;20448;-68
2022/05/12 11:13:34;;;;;;;5.20;4.43;;;31.00;63.40;;;;;;5040159;28;20798;-67
2022/05/12 11:16:04;;;;;;;12.70;11.80;;;30.90;63.60;;;;;;5034691;28;20441;-67
2022/05/12 11:18:33;;;;;;;5.30;4.80;;;30.70;63.00;;;;;;5039606;28;20468;-67
2022/05/12 11:21:12;;;;;;;5.20;4.80;;;30.50;63.70;;;;;;5033168;28;20429;-67
2022/05/12 11:23:53;;;;;;;4.50;4.20;;;29.40;65.10;;;;;;5038936;28;20444;-67
2022/05/12 11:26:37;;;;;;;5.33;4.93;;;29.40;66.00;;;;;;5029918;28;20471;-67
2022/05/12 11:32:04;;;;;;;5.33;4.83;;;29.20;65.80;;;;;;5025217;28;20821;-67
2022/05/12 11:34:30;;;;;;;5.03;4.57;;;29.20;66.80;;;;;;5031252;28;20531;-67
2022/05/12 11:36:56;;;;;;;6.87;4.60;;;29.50;66.40;;;;;;5029009;28;20851;-67
2022/05/12 11:39:37;;;;;;;8.27;4.80;;;31.00;64.70;;;;;;5025849;28;20468;-67
2022/05/12 11:42:10;;;;;;;4.67;4.27;;;32.10;60.80;;;;;;5035402;28;20448;-67
2022/05/12 11:45:03;;;;;;;4.87;4.33;;;32.00;60.10;;;;;;5028898;28;20441;-67
2022/05/12 11:48:13;;;;;;;5.07;4.73;;;32.70;60.00;;;;;;5028634;28;20444;-68
2022/05/12 11:50:38;;;;;;;5.33;4.83;;;36.10;56.00;;;;;;5026834;28;20436;-67
2022/05/12 11:53:19;;;;;;;5.53;5.13;;;36.80;52.30;;;;;;5028637;28;20471;-68
2022/05/12 11:56:05;;;;;;;4.77;4.37;;;38.80;49.40;;;;;;5035751;28;20213;-68
2022/05/12 11:58:44;;;;;;;5.27;4.87;;;38.80;46.80;;;;;;5026440;28;20480;-67
2022/05/12 12:01:22;;;;;;;4.97;4.47;;;37.30;46.50;;;;;;5032500;28;20447;-67
2022/05/12 12:03:54;;;;;;;4.73;4.33;;;36.30;47.70;;;;;;5041631;28;20440;-67
2022/05/12 12:06:43;;;;;;;7.10;5.70;;;35.70;47.80;;;;;;5034693;28;20803;-67
2022/05/12 12:09:35;;;;;;;7.17;5.00;;;34.50;49.10;;;;;;5021857;28;20873;-67
2022/05/12 12:12:04;;;;;;;4.83;4.30;;;33.40;50.20;;;;;;5031005;28;20440;-68
2022/05/12 12:14:51;;;;;;;5.97;4.63;;;32.00;52.10;;;;;;5031186;28;20827;-67
2022/05/12 12:17:25;;;;;;;4.07;3.83;;;34.90;50.80;;;;;;5029466;28;20463;-67
2022/05/12 12:19:54;;;;;;;4.77;4.47;;;38.10;47.80;;;;;;5034357;28;20590;-69
2022/05/12 12:22:25;;;;;;;5.37;4.93;;;40.60;44.30;;;;;;5030653;28;20540;-67
2022/05/12 12:25:16;;;;;;;5.00;4.57;;;41.20;42.20;;;;;;5032148;28;20428;-69
2022/05/12 12:27:55;;;;;;;5.43;5.00;;;39.80;41.70;;;;;;5030375;28;20508;-65
2022/05/12 12:30:36;;;;;;;5.50;4.83;;;37.40;44.10;;;;;;5032449;28;20955;-65
2022/05/12 12:33:08;;;;;;;4.67;4.20;;;38.20;44.30;;;;;;5031725;28;20627;-68
2022/05/12 12:36:03;;;;;;;4.50;4.20;;;39.80;42.40;;;;;;5031832;28;20443;-68
2022/05/12 12:38:46;;;;;;;6.23;4.90;;;39.40;42.50;;;;;;5027298;28;20461;-67
2022/05/12 12:41:31;;;;;;;7.07;4.47;;;37.90;42.00;;;;;;5029435;28;20432;-68
2022/05/12 12:44:23;;;;;;;5.00;4.60;;;36.00;43.40;;;;;;5030529;28;20468;-68
2022/05/12 12:46:57;;;;;;;6.03;5.57;;;33.60;46.10;;;;;;5026913;28;20432;-68
2022/05/12 12:49:24;;;;;;;6.13;5.63;;;31.90;47.50;;;;;;5035936;28;20775;-68
2022/05/12 12:51:57;;;;;;;6.17;5.57;;;31.50;49.60;;;;;;5028981;28;20432;-69
2022/05/12 12:57:18;;;;;;;5.30;4.90;;;31.20;49.30;;;;;;5025240;28;20538;-67
2022/05/12 13:00:14;;;;;;;5.30;4.93;;;30.00;51.60;;;;;;5034685;28;20460;-68
2022/05/12 13:02:43;;;;;;;6.00;5.43;;;29.60;53.20;;;;;;5029403;28;20444;-68
2022/05/12 13:05:12;;;;;;;6.47;5.97;;;29.50;54.10;;;;;;5029082;28;20433;-68
2022/05/12 13:07:41;;;;;;;5.90;5.50;;;29.50;54.30;;;;;;5028454;28;20449;-67
2022/05/12 13:10:17;;;;;;;6.93;5.80;;;29.10;52.00;;;;;;5033023;28;20464;-68
2022/05/12 13:12:58;;;;;;;6.03;5.43;;;28.50;53.30;;;;;;5026660;28;20436;-67
2022/05/12 13:15:24;;;;;;;6.03;5.37;;;28.20;54.50;;;;;;5029996;28;20440;-68
2022/05/12 13:17:54;;;;;;;6.33;4.80;;;28.30;55.40;;;;;;5029400;28;20465;-69
2022/05/12 13:20:23;;;;;;;5.57;4.90;;;28.20;56.50;;;;;;5026520;28;20560;-68
2022/05/12 13:23:01;;;;;;;5.80;5.03;;;28.20;57.10;;;;;;5033701;28;20816;-68